Time;durP1;ratioP1;P1;durP2;ratioP2;P2;SDS_P1;SDS_P2;PMS_P1;PMS_P2;Temp;Humidity;BMP_temperature;BMP_pressure;BME280_temperature;BME280_humidity;BME280_pressure;Samples;Min_cycle;Max_cycle;Signal;HPM_P1;HPM_P2
2021/12/03 00:01:52;;;;;;;0.80;0.80;;;-1.10;99.90;;;;;;5092840;28;20090;-81
2021/12/03 00:04:18;;;;;;;0.80;0.80;;;-1.20;99.90;;;;;;5093912;28;20392;-82
2021/12/03 00:06:44;;;;;;;0.80;0.80;;;-1.20;99.90;;;;;;5094048;28;20044;-82
2021/12/03 00:09:09;;;;;;;0.80;0.80;;;-1.10;99.90;;;;;;5093964;28;20044;-82
2021/12/03 00:11:35;;;;;;;0.80;0.80;;;-1.20;99.90;;;;;;5093830;28;20047;-82
2021/12/03 00:14:01;;;;;;;0.80;0.80;;;-0.40;99.90;;;;;;5094003;28;20059;-83
2021/12/03 00:16:27;;;;;;;0.80;0.80;;;-1.10;99.90;;;;;;5094269;28;20052;-83
2021/12/03 00:18:52;;;;;;;0.80;0.80;;;-1.20;99.90;;;;;;5093878;28;20040;-81
2021/12/03 00:21:18;;;;;;;0.93;0.93;;;-1.10;99.90;;;;;;5093671;28;20054;-81
2021/12/03 00:23:44;;;;;;;0.80;0.80;;;-1.10;99.90;;;;;;5093777;28;20051;-83
2021/12/03 00:26:10;;;;;;;1.00;1.00;;;-1.10;99.90;;;;;;5092663;28;20038;-82
2021/12/03 00:28:37;;;;;;;0.90;0.80;;;-1.00;99.90;;;;;;5093744;28;20040;-81
2021/12/03 00:31:04;;;;;;;0.80;0.80;;;-1.10;99.90;;;;;;5093752;28;20442;-82
2021/12/03 00:33:31;;;;;;;0.80;0.80;;;-1.10;99.90;;;;;;5093687;28;20048;-82
2021/12/03 00:36:03;;;;;;;0.80;0.80;;;-1.00;99.90;;;;;;5093953;28;20036;-81
2021/12/03 00:38:30;;;;;;;0.80;0.80;;;-1.00;99.90;;;;;;5092545;28;20040;-81
2021/12/03 00:40:56;;;;;;;0.80;0.80;;;-1.00;99.90;;;;;;5093576;28;20048;-82
2021/12/03 00:43:21;;;;;;;0.90;0.90;;;-1.00;99.90;;;;;;5092392;28;20090;-81
2021/12/03 00:45:48;;;;;;;0.80;0.80;;;-1.00;99.90;;;;;;5092642;28;20054;-81
2021/12/03 00:48:14;;;;;;;0.80;0.80;;;-1.00;99.90;;;;;;5092781;28;20065;-82
2021/12/03 00:50:40;;;;;;;0.90;0.90;;;-1.10;99.90;;;;;;5093590;28;20040;-82
2021/12/03 00:53:06;;;;;;;0.80;0.80;;;-1.00;99.90;;;;;;5093549;28;20127;-82
2021/12/03 00:55:34;;;;;;;0.90;0.90;;;-1.00;99.90;;;;;;5093320;28;20040;-81
2021/12/03 00:57:59;;;;;;;0.80;0.80;;;-1.00;99.90;;;;;;5093570;28;20464;-81
2021/12/03 01:00:29;;;;;;;0.90;0.90;;;-1.00;99.90;;;;;;5093506;28;20063;-80
2021/12/03 01:02:57;;;;;;;0.85;0.85;;;-0.90;99.90;;;;;;5092350;28;20055;-82
2021/12/03 01:05:23;;;;;;;1.35;1.25;;;-0.90;99.90;;;;;;5092367;28;20048;-81
2021/12/03 01:07:49;;;;;;;0.87;0.87;;;-0.90;99.90;;;;;;5093684;28;20085;-81
2021/12/03 01:10:16;;;;;;;0.80;0.80;;;-0.80;99.90;;;;;;5093281;28;20048;-81
2021/12/03 01:12:45;;;;;;;0.80;0.80;;;-0.90;99.90;;;;;;5093249;28;20089;-82
2021/12/03 01:15:14;;;;;;;0.80;0.80;;;-0.60;99.90;;;;;;5093055;28;20048;-81
2021/12/03 01:17:39;;;;;;;0.90;0.90;;;-0.80;99.90;;;;;;5092876;28;20483;-82
2021/12/03 01:20:08;;;;;;;0.80;0.80;;;-0.80;99.90;;;;;;5093344;28;20047;-82
2021/12/03 01:22:35;;;;;;;0.80;0.80;;;-0.70;99.90;;;;;;5094217;28;20044;-82
2021/12/03 01:25:01;;;;;;;0.80;0.80;;;-0.70;99.90;;;;;;5096874;28;20036;-81
2021/12/03 01:27:26;;;;;;;0.82;0.82;;;-0.80;99.90;;;;;;5096795;28;20150;-82
2021/12/03 01:29:52;;;;;;;0.90;0.90;;;-0.70;99.90;;;;;;5078976;28;20051;-81
2021/12/03 01:32:17;;;;;;;0.90;0.90;;;-0.70;99.90;;;;;;5096604;28;20036;-82
2021/12/03 01:34:43;;;;;;;0.80;0.80;;;-0.30;99.90;;;;;;5096654;28;20040;-82
2021/12/03 01:37:09;;;;;;;0.80;0.80;;;-0.60;99.90;;;;;;5096751;28;20091;-82
2021/12/03 01:39:34;;;;;;;0.80;0.80;;;-0.60;99.90;;;;;;5096721;28;20069;-82
2021/12/03 01:42:00;;;;;;;0.80;0.80;;;-0.60;99.90;;;;;;5095625;28;20529;-82
2021/12/03 01:44:26;;;;;;;0.80;0.80;;;-0.60;99.90;;;;;;5096608;28;20096;-80
2021/12/03 01:46:51;;;;;;;0.80;0.80;;;-0.60;99.90;;;;;;5095613;28;20127;-82
2021/12/03 01:49:17;;;;;;;0.80;0.80;;;-0.50;99.90;;;;;;5096375;28;20506;-80
2021/12/03 01:51:43;;;;;;;0.82;0.82;;;-0.50;99.90;;;;;;5096283;28;20442;-81
2021/12/03 01:54:09;;;;;;;0.70;0.70;;;-0.50;99.90;;;;;;5096274;28;20085;-81
2021/12/03 01:56:37;;;;;;;3.42;3.13;;;-0.50;99.90;;;;;;5096251;28;20043;-82
2021/12/03 01:59:03;;;;;;;0.80;0.80;;;-0.50;99.90;;;;;;5096682;28;20094;-80
2021/12/03 02:01:29;;;;;;;0.80;0.80;;;-0.50;99.90;;;;;;5096265;28;20066;-82
2021/12/03 02:03:58;;;;;;;0.80;0.80;;;-0.50;99.90;;;;;;5095403;28;20135;-81
2021/12/03 02:06:25;;;;;;;0.70;0.70;;;-0.50;99.90;;;;;;5096153;28;20046;-81
2021/12/03 02:08:52;;;;;;;1.00;1.00;;;-0.50;99.90;;;;;;5095116;28;20067;-82
2021/12/03 02:11:18;;;;;;;0.82;0.82;;;-0.50;99.90;;;;;;5095048;28;20101;-81
2021/12/03 02:13:44;;;;;;;0.80;0.80;;;-0.40;99.90;;;;;;5096051;28;20044;-81
2021/12/03 02:16:11;;;;;;;0.80;0.80;;;-0.40;99.90;;;;;;5095778;28;20044;-81
2021/12/03 02:18:37;;;;;;;;;;;-0.40;99.90;;;;;;5095091;28;20127;-81
2021/12/03 02:21:04;;;;;;;0.70;0.70;;;0.50;99.90;;;;;;5095698;28;19970;-82
2021/12/03 02:23:30;;;;;;;0.70;0.70;;;-0.40;99.90;;;;;;5095772;28;20044;-82
2021/12/03 02:25:57;;;;;;;0.80;0.80;;;-0.30;99.90;;;;;;5095352;28;20484;-81
2021/12/03 02:28:32;;;;;;;0.90;0.90;;;-0.30;99.90;;;;;;5095670;28;20082;-82
2021/12/03 02:30:58;;;;;;;1.35;1.00;;;-0.30;99.90;;;;;;5094854;28;20048;-82
2021/12/03 02:33:24;;;;;;;0.80;0.80;;;-0.30;99.90;;;;;;5095953;28;20399;-82
2021/12/03 02:35:53;;;;;;;0.80;0.80;;;0.50;99.90;;;;;;5094411;28;20123;-81
2021/12/03 02:38:21;;;;;;;1.35;1.25;;;-0.30;99.90;;;;;;5094118;28;20082;-81
2021/12/03 02:40:48;;;;;;;0.80;0.80;;;-0.30;99.90;;;;;;5095032;28;20040;-81
2021/12/03 02:43:14;;;;;;;0.90;0.90;;;-0.20;99.90;;;;;;5095275;28;20044;-81
2021/12/03 02:45:40;;;;;;;0.87;0.87;;;-0.20;99.90;;;;;;5093998;28;20488;-82
2021/12/03 02:48:06;;;;;;;0.90;0.90;;;-1.00;99.90;;;;;;5077280;28;20308;-81
2021/12/03 02:50:31;;;;;;;0.90;0.90;;;-0.20;99.90;;;;;;5095134;28;20047;-82
2021/12/03 02:52:57;;;;;;;0.70;0.70;;;-0.20;99.90;;;;;;5095199;28;20040;-81
2021/12/03 02:55:24;;;;;;;0.80;0.80;;;-0.20;99.90;;;;;;5094764;28;20032;-82
2021/12/03 02:57:49;;;;;;;0.80;0.80;;;-0.20;99.90;;;;;;5094148;28;20488;-81
2021/12/03 03:00:19;;;;;;;0.70;0.70;;;-0.20;99.90;;;;;;5095071;28;20054;-81
2021/12/03 03:02:45;;;;;;;0.73;0.73;;;-0.30;99.90;;;;;;5095024;28;20086;-82
2021/12/03 03:05:12;;;;;;;0.70;0.70;;;-0.20;99.90;;;;;;5093704;28;20480;-82
2021/12/03 03:07:38;;;;;;;0.88;0.88;;;-0.10;99.90;;;;;;5093652;28;20113;-81
2021/12/03 03:10:09;;;;;;;0.85;0.85;;;-0.10;99.90;;;;;;5094891;28;20051;-82
2021/12/03 03:12:36;;;;;;;1.23;1.20;;;-0.20;99.90;;;;;;5095172;28;20075;-82
2021/12/03 03:15:02;;;;;;;1.70;1.60;;;-0.20;99.90;;;;;;5094414;28;20090;-82
2021/12/03 03:17:30;;;;;;;2.15;2.05;;;-0.20;99.90;;;;;;5093580;28;20044;-81
2021/12/03 03:19:57;;;;;;;0.90;0.90;;;-0.20;99.90;;;;;;5094714;28;20097;-81
2021/12/03 03:22:23;;;;;;;1.00;1.00;;;-0.20;99.90;;;;;;5094580;28;20070;-81
2021/12/03 03:24:50;;;;;;;3.37;3.17;;;-0.20;99.90;;;;;;5093756;28;20181;-82
2021/12/03 03:27:16;;;;;;;0.80;0.80;;;-0.20;99.90;;;;;;5094617;28;20289;-81
2021/12/03 03:29:44;;;;;;;0.80;0.80;;;-0.20;99.90;;;;;;5094636;28;20081;-82
2021/12/03 03:32:10;;;;;;;0.75;0.75;;;-0.20;99.90;;;;;;5094369;28;20048;-82
2021/12/03 03:34:36;;;;;;;0.90;0.90;;;-0.20;99.90;;;;;;5094521;28;20101;-80
2021/12/03 03:37:02;;;;;;;0.90;0.90;;;1.10;99.90;;;;;;5092993;28;20345;-80
2021/12/03 03:39:28;;;;;;;0.80;0.80;;;-0.20;99.90;;;;;;5094491;28;20079;-79
2021/12/03 03:41:54;;;;;;;0.80;0.80;;;-0.20;99.90;;;;;;5094299;28;20137;-80
2021/12/03 03:44:20;;;;;;;1.35;1.25;;;-0.20;99.90;;;;;;5093329;28;20387;-79
2021/12/03 03:46:48;;;;;;;1.17;1.13;;;-0.20;99.90;;;;;;5093805;28;20036;-80
2021/12/03 03:49:14;;;;;;;0.80;0.80;;;-0.20;99.90;;;;;;5094182;28;20040;-79
2021/12/03 03:51:40;;;;;;;1.20;1.10;;;-0.10;99.90;;;;;;5094705;28;20105;-81
2021/12/03 03:54:07;;;;;;;1.27;1.17;;;-0.20;99.90;;;;;;5093098;28;20161;-80
2021/12/03 03:56:33;;;;;;;1.00;1.00;;;-0.20;99.90;;;;;;5094657;28;20549;-81
2021/12/03 03:58:59;;;;;;;0.80;0.80;;;-0.30;99.90;;;;;;5094334;28;20090;-81
2021/12/03 04:01:24;;;;;;;0.85;0.85;;;-0.30;99.90;;;;;;5094439;28;20083;-80
2021/12/03 04:03:50;;;;;;;0.80;0.80;;;-0.20;99.90;;;;;;5092882;28;20153;-81
2021/12/03 04:06:19;;;;;;;0.80;0.80;;;-0.30;99.90;;;;;;5093976;28;20032;-79
2021/12/03 04:08:47;;;;;;;0.70;0.70;;;-0.30;99.90;;;;;;5093947;28;20040;-80
2021/12/03 04:11:14;;;;;;;1.08;0.98;;;-0.30;99.90;;;;;;5094017;28;20077;-81
2021/12/03 04:13:40;;;;;;;1.30;1.20;;;-0.10;99.90;;;;;;5093963;28;20047;-81
2021/12/03 04:16:06;;;;;;;0.80;0.80;;;-0.30;99.90;;;;;;5093728;28;20048;-80
2021/12/03 04:18:31;;;;;;;0.80;0.80;;;-0.30;99.90;;;;;;5093825;28;20060;-79
2021/12/03 04:20:57;;;;;;;0.80;0.80;;;0.20;99.90;;;;;;5093730;28;20407;-81
2021/12/03 04:23:23;;;;;;;6.55;3.03;;;-0.30;99.90;;;;;;5092699;28;20044;-80
2021/12/03 04:25:50;;;;;;;0.90;0.90;;;-0.20;99.90;;;;;;5093927;28;20032;-79
2021/12/03 04:28:17;;;;;;;;;;;-0.30;99.90;;;;;;5094903;28;20317;-80
2021/12/03 04:30:43;;;;;;;1.20;1.10;;;-0.80;99.90;;;;;;5105441;28;19920;-80
2021/12/03 04:33:09;;;;;;;0.80;0.80;;;-0.30;99.90;;;;;;5106190;28;20044;-80
2021/12/03 04:35:35;;;;;;;1.90;1.80;;;-0.30;99.90;;;;;;5106281;28;20506;-80
2021/12/03 04:38:01;;;;;;;0.80;0.80;;;-0.30;99.90;;;;;;5071600;28;20068;-80
2021/12/03 04:40:28;;;;;;;0.80;0.80;;;-0.30;99.90;;;;;;5081418;28;20074;-80
2021/12/03 04:42:53;;;;;;;;;;;-0.40;99.90;;;;;;5093050;28;20039;-81
2021/12/03 04:45:21;;;;;;;1.00;0.98;;;-0.40;99.90;;;;;;5093694;28;19946;-81
2021/12/03 04:47:48;;;;;;;0.80;0.80;;;-0.30;99.90;;;;;;5101482;28;20087;-79
2021/12/03 04:50:15;;;;;;;0.80;0.80;;;-0.30;99.90;;;;;;5092864;28;20048;-79
2021/12/03 04:52:41;;;;;;;0.90;0.90;;;-0.40;99.90;;;;;;5093635;28;20048;-80
2021/12/03 04:55:11;;;;;;;2.78;1.90;;;-0.30;99.90;;;;;;5093534;28;20082;-79
2021/12/03 04:57:38;;;;;;;0.80;0.80;;;-0.30;99.90;;;;;;5094604;28;20396;-80
2021/12/03 05:00:09;;;;;;;0.90;0.90;;;-0.30;99.90;;;;;;5097334;28;20044;-79
2021/12/03 05:02:35;;;;;;;2.90;2.25;;;-0.30;99.90;;;;;;5097200;28;20407;-81
2021/12/03 05:05:04;;;;;;;6.03;4.47;;;-0.30;99.90;;;;;;5096028;28;20051;-81
2021/12/03 05:10:06;;;;;;;0.80;0.80;;;-0.30;99.90;;;;;;5097515;28;20395;-81
2021/12/03 05:12:32;;;;;;;1.17;1.13;;;-0.30;99.90;;;;;;5097461;28;20052;-79
2021/12/03 05:14:58;;;;;;;2.65;2.45;;;-0.20;99.90;;;;;;5097008;28;20109;-80
2021/12/03 05:17:23;;;;;;;0.90;0.90;;;-0.30;99.90;;;;;;5079113;28;20556;-80
2021/12/03 05:19:50;;;;;;;0.82;0.82;;;-0.20;99.90;;;;;;5096777;28;20054;-80
2021/12/03 05:22:16;;;;;;;0.80;0.80;;;-0.20;99.90;;;;;;5097378;28;20066;-80
2021/12/03 05:24:45;;;;;;;0.87;0.87;;;-0.20;99.90;;;;;;5095606;28;20550;-80
2021/12/03 05:27:19;;;;;;;0.95;0.95;;;-0.10;99.90;;;;;;5095784;28;20113;-79
2021/12/03 05:29:47;;;;;;;1.63;1.52;;;-0.10;99.90;;;;;;5096684;28;20044;-79
2021/12/03 05:32:13;;;;;;;1.95;1.85;;;-0.10;99.90;;;;;;5096840;28;20040;-79
2021/12/03 05:34:39;;;;;;;0.90;0.90;;;-0.10;99.90;;;;;;5096401;28;20048;-80
2021/12/03 05:37:06;;;;;;;2.10;1.63;;;-0.10;99.90;;;;;;5096552;28;20115;-80
2021/12/03 05:39:33;;;;;;;0.70;0.70;;;-0.10;99.90;;;;;;5096560;28;20135;-79
2021/12/03 05:41:59;;;;;;;;;;;-0.10;99.90;;;;;;5097222;28;20070;-79
2021/12/03 05:44:25;;;;;;;0.80;0.80;;;-0.10;99.90;;;;;;5096927;28;20010;-81
2021/12/03 05:46:50;;;;;;;1.27;1.13;;;-0.10;99.90;;;;;;5095319;28;20097;-79
2021/12/03 05:49:16;;;;;;;0.90;0.90;;;0.00;99.90;;;;;;5095173;28;20437;-79
2021/12/03 05:51:43;;;;;;;2.65;2.45;;;0.00;99.90;;;;;;5096350;28;20036;-81
2021/12/03 05:54:09;;;;;;;1.23;1.08;;;0.00;99.90;;;;;;5096654;28;20127;-81
2021/12/03 05:56:35;;;;;;;1.20;1.10;;;0.00;99.90;;;;;;5096233;28;20036;-79
2021/12/03 05:59:01;;;;;;;0.77;0.77;;;;;;;;;;5096288;28;20044;-81
2021/12/03 06:01:27;;;;;;;0.80;0.80;;;0.00;99.90;;;;;;5096153;28;20381;-80
2021/12/03 06:03:53;;;;;;;4.72;4.32;;;0.00;99.90;;;;;;5096182;28;20044;-80
2021/12/03 06:06:19;;;;;;;1.00;1.00;;;0.00;99.90;;;;;;5095746;28;20048;-80
2021/12/03 06:08:44;;;;;;;1.00;1.00;;;0.10;99.90;;;;;;5095529;28;20126;-80
2021/12/03 06:11:10;;;;;;;0.80;0.80;;;0.10;99.90;;;;;;5096085;28;20098;-80
2021/12/03 06:13:39;;;;;;;1.33;1.23;;;0.10;99.90;;;;;;5096042;28;20044;-80
2021/12/03 06:16:11;;;;;;;1.50;1.40;;;0.10;99.90;;;;;;5094437;28;20097;-81
2021/12/03 06:18:37;;;;;;;1.20;1.10;;;-0.30;99.90;;;;;;5096347;28;20057;-82
2021/12/03 06:21:04;;;;;;;0.82;0.82;;;0.00;99.90;;;;;;5094968;28;20472;-81
2021/12/03 06:23:31;;;;;;;1.27;1.17;;;0.00;99.90;;;;;;5095940;28;20055;-79
2021/12/03 06:25:58;;;;;;;1.08;1.08;;;0.30;99.90;;;;;;5096020;28;20387;-79
2021/12/03 06:28:25;;;;;;;0.75;0.75;;;0.00;99.90;;;;;;5095675;28;20131;-80
2021/12/03 06:30:51;;;;;;;1.20;1.10;;;0.00;99.90;;;;;;5095917;28;20055;-80
2021/12/03 06:33:16;;;;;;;0.95;0.95;;;0.10;99.90;;;;;;5094652;28;20101;-78
2021/12/03 06:35:42;;;;;;;0.80;0.80;;;0.30;99.90;;;;;;5094418;28;20040;-79
2021/12/03 06:38:07;;;;;;;0.80;0.80;;;0.10;99.90;;;;;;5095338;28;20044;-78
2021/12/03 06:40:33;;;;;;;0.70;0.70;;;0.10;99.90;;;;;;5094322;28;20044;-79
2021/12/03 06:42:59;;;;;;;1.38;1.27;;;0.10;99.90;;;;;;5095490;28;20077;-81
2021/12/03 06:45:24;;;;;;;4.13;3.87;;;0.10;99.90;;;;;;5094663;28;20036;-82
2021/12/03 06:47:50;;;;;;;2.17;2.03;;;0.10;99.90;;;;;;5096373;28;20054;-78
2021/12/03 06:50:18;;;;;;;1.42;1.33;;;0.20;99.90;;;;;;5096400;28;20050;-79
2021/12/03 06:52:48;;;;;;;0.95;0.90;;;0.20;99.90;;;;;;5095394;28;20493;-80
2021/12/03 06:55:15;;;;;;;0.90;0.90;;;0.20;99.90;;;;;;5094947;28;20113;-83
2021/12/03 06:57:44;;;;;;;0.70;0.70;;;0.20;99.90;;;;;;5095410;28;20048;-82
2021/12/03 07:00:11;;;;;;;0.80;0.80;;;0.20;99.90;;;;;;5095151;28;20365;-81
2021/12/03 07:02:37;;;;;;;1.35;1.25;;;0.30;99.90;;;;;;5095165;28;20106;-79
2021/12/03 07:05:04;;;;;;;1.65;1.55;;;0.30;99.90;;;;;;5095362;28;20044;-80
2021/12/03 07:07:30;;;;;;;1.95;0.98;;;0.30;99.90;;;;;;5094928;28;20048;-81
2021/12/03 07:09:56;;;;;;;0.80;0.80;;;0.30;99.90;;;;;;5093780;28;20075;-79
2021/12/03 07:12:21;;;;;;;1.13;0.80;;;0.30;99.90;;;;;;5094855;28;20090;-80
2021/12/03 07:14:47;;;;;;;2.28;2.15;;;0.40;99.90;;;;;;5093466;28;20070;-78
2021/12/03 07:17:13;;;;;;;0.90;0.90;;;0.40;99.90;;;;;;5095135;28;20040;-79
2021/12/03 07:19:39;;;;;;;0.80;0.80;;;0.40;99.90;;;;;;5094266;28;20055;-78
2021/12/03 07:22:04;;;;;;;2.43;1.90;;;0.50;99.90;;;;;;5093072;28;20043;-78
2021/12/03 07:24:30;;;;;;;0.90;0.90;;;0.50;99.90;;;;;;5094483;28;20487;-79
2021/12/03 07:26:56;;;;;;;0.90;0.90;;;0.50;99.90;;;;;;5094731;28;20040;-80
2021/12/03 07:29:21;;;;;;;0.80;0.80;;;1.40;99.90;;;;;;5094635;28;20050;-80
2021/12/03 07:31:47;;;;;;;3.97;3.23;;;0.60;99.90;;;;;;5094414;28;20047;-81
2021/12/03 07:34:14;;;;;;;2.72;2.10;;;0.60;99.90;;;;;;5093345;28;20044;-82
2021/12/03 07:36:40;;;;;;;0.80;0.80;;;0.70;99.90;;;;;;5094488;28;20174;-84
2021/12/03 07:39:06;;;;;;;1.33;1.25;;;0.70;99.90;;;;;;5094504;28;20087;-79
2021/12/03 07:41:31;;;;;;;1.53;1.43;;;0.70;99.90;;;;;;5094263;28;20090;-83
2021/12/03 07:43:57;;;;;;;3.60;2.55;;;0.70;99.90;;;;;;5093285;28;20039;-81
2021/12/03 07:46:22;;;;;;;1.80;1.70;;;0.80;99.90;;;;;;5092971;28;20434;-78
2021/12/03 07:48:49;;;;;;;0.88;0.88;;;0.80;99.90;;;;;;5094165;28;20082;-75
2021/12/03 07:51:16;;;;;;;0.90;0.90;;;0.80;99.90;;;;;;5094372;28;20468;-79
2021/12/03 07:53:42;;;;;;;;;;;0.90;99.90;;;;;;5093378;28;20496;-79
2021/12/03 07:56:08;;;;;;;1.50;1.40;;;0.90;99.90;;;;;;5089290;28;19929;-79
2021/12/03 07:58:35;;;;;;;1.33;1.23;;;0.90;99.90;;;;;;5055326;28;20552;-82
2021/12/03 08:01:00;;;;;;;0.70;0.70;;;0.90;99.90;;;;;;5055867;28;20504;-81
2021/12/03 08:03:26;;;;;;;0.60;0.60;;;0.90;99.90;;;;;;5079109;28;20043;-81
2021/12/03 08:05:52;;;;;;;0.70;0.70;;;1.00;99.90;;;;;;5091474;28;20044;-81
2021/12/03 08:08:22;;;;;;;3.23;0.93;;;1.10;99.90;;;;;;5092054;28;20040;-79
2021/12/03 08:10:49;;;;;;;4.00;3.65;;;1.10;99.90;;;;;;5092293;28;20055;-82
2021/12/03 08:13:15;;;;;;;2.28;2.15;;;1.10;99.90;;;;;;5092543;28;20063;-81
2021/12/03 08:15:40;;;;;;;8.20;3.27;;;1.10;99.90;;;;;;5074392;28;20056;-82
2021/12/03 08:18:06;;;;;;;1.08;0.93;;;1.10;99.90;;;;;;5072106;28;20046;-80
2021/12/03 08:20:32;;;;;;;0.82;0.82;;;1.70;99.90;;;;;;5072451;28;20051;-79
2021/12/03 08:22:59;;;;;;;1.67;1.58;;;1.20;99.90;;;;;;5072336;28;20519;-82
2021/12/03 08:25:26;;;;;;;1.20;1.10;;;1.50;99.90;;;;;;5071620;28;20488;-82
2021/12/03 08:27:52;;;;;;;0.70;0.70;;;1.40;99.90;;;;;;5072154;28;20049;-81
2021/12/03 08:30:17;;;;;;;1.15;0.80;;;1.20;99.90;;;;;;5072646;28;20047;-81
2021/12/03 08:32:43;;;;;;;2.20;2.00;;;1.30;99.90;;;;;;5060858;28;20044;-81
2021/12/03 08:35:09;;;;;;;1.25;1.15;;;1.30;99.90;;;;;;5078899;28;20077;-82
2021/12/03 08:37:35;;;;;;;1.63;1.53;;;1.30;99.90;;;;;;5096744;28;20036;-82
2021/12/03 08:40:00;;;;;;;1.67;1.58;;;1.30;99.90;;;;;;5096683;28;20116;-81
2021/12/03 08:42:26;;;;;;;2.30;2.20;;;1.40;99.90;;;;;;5079247;28;20035;-82
2021/12/03 08:44:52;;;;;;;2.10;2.00;;;1.40;99.90;;;;;;5097749;28;20105;-82
2021/12/03 08:47:17;;;;;;;1.10;1.10;;;1.40;99.90;;;;;;5096666;28;20040;-80
2021/12/03 08:49:50;;;;;;;1.33;1.23;;;1.40;99.90;;;;;;5097675;28;20109;-80
2021/12/03 08:52:28;;;;;;;1.05;1.05;;;1.40;99.90;;;;;;5097643;28;20052;-81
2021/12/03 08:54:57;;;;;;;2.67;2.15;;;1.60;99.90;;;;;;5097418;28;20040;-80
2021/12/03 08:57:31;;;;;;;1.00;1.00;;;1.50;99.90;;;;;;5097480;28;20457;-81
2021/12/03 09:00:15;;;;;;;3.53;3.25;;;1.60;99.90;;;;;;5097876;28;20039;-80
2021/12/03 09:02:42;;;;;;;0.70;0.70;;;1.60;99.90;;;;;;5097483;28;20091;-79
2021/12/03 09:05:08;;;;;;;1.73;1.63;;;1.60;99.90;;;;;;5097169;28;20546;-80
2021/12/03 09:07:35;;;;;;;1.42;1.33;;;1.70;99.90;;;;;;5097171;28;20044;-81
2021/12/03 09:10:01;;;;;;;2.90;2.70;;;1.70;99.90;;;;;;5096352;28;20050;-81
2021/12/03 09:12:27;;;;;;;2.50;2.10;;;1.70;99.90;;;;;;5097527;28;20044;-82
2021/12/03 09:15:03;;;;;;;2.00;1.80;;;1.80;99.90;;;;;;5097050;28;20429;-84
2021/12/03 09:17:45;;;;;;;0.98;0.98;;;2.10;99.90;;;;;;5096407;28;20046;-83
2021/12/03 09:20:38;;;;;;;2.38;2.17;;;1.80;99.90;;;;;;5095946;28;20123;-82
2021/12/03 09:23:09;;;;;;;1.27;1.25;;;2.00;99.90;;;;;;5096543;28;20060;-81
2021/12/03 09:25:38;;;;;;;3.05;1.17;;;2.00;99.90;;;;;;5097151;28;20040;-83
2021/12/03 09:28:07;;;;;;;3.38;3.15;;;2.10;99.90;;;;;;5096615;28;20044;-84
2021/12/03 09:30:37;;;;;;;2.47;2.28;;;2.10;99.90;;;;;;5095638;28;20040;-84
2021/12/03 09:33:05;;;;;;;1.05;1.05;;;2.10;99.90;;;;;;5096813;28;20044;-83
2021/12/03 09:35:31;;;;;;;3.30;3.08;;;1.90;99.90;;;;;;5095415;28;20051;-84
2021/12/03 09:37:57;;;;;;;0.80;0.80;;;2.10;99.90;;;;;;5095803;28;20044;-84
2021/12/03 09:40:25;;;;;;;1.60;1.50;;;2.10;99.90;;;;;;5095203;28;20453;-81
2021/12/03 09:42:51;;;;;;;2.45;1.80;;;2.10;99.90;;;;;;5094830;28;20127;-79
2021/12/03 09:45:17;;;;;;;1.17;1.08;;;2.10;99.90;;;;;;5096539;28;20568;-81
2021/12/03 09:47:43;;;;;;;2.03;1.88;;;2.20;99.90;;;;;;5096727;28;20040;-74
2021/12/03 09:50:13;;;;;;;1.75;1.58;;;2.20;99.90;;;;;;5096820;28;20059;-81
2021/12/03 09:52:53;;;;;;;2.63;2.35;;;2.20;99.90;;;;;;5096437;28;20052;-81
2021/12/03 09:55:18;;;;;;;1.33;1.23;;;2.20;99.90;;;;;;5096565;28;20040;-82
2021/12/03 09:58:03;;;;;;;2.13;2.03;;;2.30;99.90;;;;;;5094648;28;20069;-83
2021/12/03 10:03:35;;;;;;;5.30;2.50;;;2.30;99.90;;;;;;5095716;28;20380;-83
2021/12/03 10:14:10;;;;;;;;;;;2.30;99.90;;;;;;5097239;28;20091;-81
2021/12/03 10:17:15;;;;;;;2.45;2.30;;;2.40;99.90;;;;;;5096372;28;19920;-81
2021/12/03 10:20:37;;;;;;;2.00;1.90;;;2.40;99.90;;;;;;5097139;28;20048;-83
2021/12/03 10:31:35;;;;;;;4.68;3.25;;;2.60;99.90;;;;;;5095347;28;20131;-83
2021/12/03 10:50:03;;;;;;;1.77;1.15;;;2.60;99.90;;;;;;5095869;28;20055;-82
2021/12/03 10:52:29;;;;;;;1.42;1.33;;;2.60;99.90;;;;;;5093641;28;20510;-83
2021/12/03 10:55:16;;;;;;;0.70;0.70;;;3.30;99.90;;;;;;5094401;28;20052;-83
2021/12/03 10:58:20;;;;;;;0.80;0.80;;;2.60;99.90;;;;;;5095394;28;20056;-83
2021/12/03 11:39:43;;;;;;;1.98;1.88;;;2.80;99.90;;;;;;5093625;28;20048;-82
2021/12/03 11:48:15;;;;;;;0.80;0.80;;;2.80;99.90;;;;;;5094600;28;20054;-83
2021/12/03 11:59:57;;;;;;;0.70;0.70;;;2.70;99.90;;;;;;5093182;28;20052;-86
2021/12/03 12:40:13;;;;;;;0.70;0.70;;;2.20;99.90;;;;;;5051632;28;20143;-83
2021/12/03 12:43:17;;;;;;;0.70;0.70;;;2.30;99.90;;;;;;5093217;28;20060;-83
2021/12/03 12:57:47;;;;;;;0.80;0.80;;;2.30;99.90;;;;;;5096007;28;20044;-84
2021/12/03 13:36:55;;;;;;;0.70;0.70;;;2.80;99.90;;;;;;5096735;28;20044;-88
2021/12/03 14:37:41;;;;;;;0.90;0.90;;;3.00;99.90;;;;;;5095640;28;20044;-85
2021/12/03 14:40:19;;;;;;;2.25;1.50;;;3.00;99.90;;;;;;5095538;28;20052;-84
2021/12/03 14:46:03;;;;;;;0.70;0.70;;;3.10;99.90;;;;;;5095425;28;20048;-85
2021/12/03 14:49:41;;;;;;;0.70;0.70;;;3.10;99.90;;;;;;5081598;28;20056;-84
2021/12/03 15:03:10;;;;;;;0.60;0.60;;;3.20;99.90;;;;;;5094836;28;20480;-85
2021/12/03 15:08:49;;;;;;;0.90;0.90;;;3.20;99.90;;;;;;5079918;28;20117;-85
2021/12/03 15:19:18;;;;;;;0.70;0.70;;;3.30;99.90;;;;;;5094767;28;20048;-84
2021/12/03 15:27:16;;;;;;;0.70;0.70;;;3.40;99.90;;;;;;5094733;28;20454;-84
2021/12/03 15:32:43;;;;;;;1.15;1.05;;;3.40;99.90;;;;;;5094638;28;20052;-83
2021/12/03 15:38:08;;;;;;;0.60;0.60;;;3.40;99.90;;;;;;5094516;28;20407;-83
2021/12/03 15:41:26;;;;;;;0.60;0.60;;;3.40;99.90;;;;;;5092249;28;20419;-86
2021/12/03 16:04:30;;;;;;;0.70;0.70;;;3.60;99.90;;;;;;5092723;28;20098;-85
2021/12/03 16:07:18;;;;;;;0.80;0.80;;;3.60;99.90;;;;;;5074833;28;20071;-85
2021/12/03 16:21:07;;;;;;;0.70;0.70;;;3.60;99.90;;;;;;5098029;28;20051;-79
2021/12/03 16:26:20;;;;;;;1.05;1.02;;;3.40;99.90;;;;;;5094136;28;20395;-82
2021/12/03 16:51:28;;;;;;;0.70;0.70;;;3.60;99.90;;;;;;5081036;28;20048;-80
2021/12/03 16:54:03;;;;;;;1.52;1.42;;;3.70;99.90;;;;;;5079637;28;20343;-79
2021/12/03 16:56:29;;;;;;;2.88;1.70;;;3.60;99.90;;;;;;5097821;28;20051;-82
2021/12/03 16:58:57;;;;;;;1.50;1.40;;;3.60;99.90;;;;;;5097479;28;20048;-79
2021/12/03 17:01:31;;;;;;;0.93;0.88;;;3.60;99.90;;;;;;5097473;28;20077;-79
2021/12/03 17:04:09;;;;;;;0.70;0.70;;;3.60;99.90;;;;;;5097050;28;20078;-79
2021/12/03 17:14:44;;;;;;;0.60;0.60;;;3.50;99.90;;;;;;5097322;28;20547;-80
2021/12/03 17:30:59;;;;;;;0.70;0.70;;;3.70;99.90;;;;;;5096311;28;20056;-80
2021/12/03 17:49:48;;;;;;;1.30;1.20;;;3.70;99.90;;;;;;5094991;28;20088;-80
2021/12/03 17:55:14;;;;;;;0.60;0.60;;;3.70;99.90;;;;;;5093437;28;20095;-78
2021/12/03 17:57:53;;;;;;;1.25;1.17;;;;;;;;;;5093161;28;20130;-80
2021/12/03 18:00:49;;;;;;;0.70;0.70;;;3.80;99.90;;;;;;5096142;28;20048;-78
2021/12/03 18:04:21;;;;;;;0.93;0.93;;;3.70;99.90;;;;;;5095414;28;20128;-79
2021/12/03 18:09:07;;;;;;;1.40;0.77;;;3.80;99.90;;;;;;5095820;28;20059;-80
2021/12/03 18:15:10;;;;;;;1.33;1.20;;;3.80;99.90;;;;;;5024358;28;20398;-78
2021/12/03 18:44:50;;;;;;;0.98;0.98;;;3.80;99.90;;;;;;5095558;28;20147;-78
2021/12/03 18:52:56;;;;;;;1.00;0.95;;;3.80;99.90;;;;;;5093975;28;20048;-79
2021/12/03 18:55:32;;;;;;;0.70;0.70;;;3.80;99.90;;;;;;5093654;28;20044;-79
2021/12/03 18:58:03;;;;;;;0.80;0.80;;;3.80;99.90;;;;;;5093963;28;20407;-81
2021/12/03 19:00:38;;;;;;;0.60;0.60;;;3.80;99.90;;;;;;5094122;28;20085;-81
2021/12/03 19:03:13;;;;;;;0.60;0.60;;;3.80;99.90;;;;;;5093909;28;20040;-80
2021/12/03 19:06:00;;;;;;;1.40;0.80;;;3.80;99.90;;;;;;5093326;28;20097;-80
2021/12/03 19:11:21;;;;;;;0.77;0.77;;;3.90;99.90;;;;;;5094015;28;20058;-80
2021/12/03 19:13:50;;;;;;;0.95;0.93;;;3.90;99.90;;;;;;5094637;28;20055;-79
2021/12/03 19:16:21;;;;;;;0.70;0.70;;;3.90;99.90;;;;;;5092452;28;20487;-77
2021/12/03 19:18:52;;;;;;;1.27;1.17;;;3.90;99.90;;;;;;5110904;28;20131;-83
2021/12/03 19:21:24;;;;;;;0.90;0.90;;;3.90;99.90;;;;;;5093902;28;20044;-80
2021/12/03 19:23:58;;;;;;;1.27;1.17;;;3.90;99.90;;;;;;5093638;28;20062;-80
2021/12/03 19:26:27;;;;;;;0.80;0.80;;;3.90;99.90;;;;;;5093006;28;20055;-80
2021/12/03 19:28:53;;;;;;;0.70;0.70;;;3.90;99.90;;;;;;5110574;28;20048;-79
2021/12/03 19:31:22;;;;;;;1.13;1.10;;;3.90;99.90;;;;;;5094492;28;20427;-81
2021/12/03 19:33:47;;;;;;;1.23;1.02;;;3.90;99.90;;;;;;5093199;28;20051;-80
2021/12/03 19:36:20;;;;;;;0.82;0.82;;;3.90;99.90;;;;;;5092943;28;20036;-81
2021/12/03 19:38:48;;;;;;;0.68;0.68;;;4.00;99.90;;;;;;5092940;28;20048;-81
2021/12/03 19:44:13;;;;;;;0.70;0.70;;;4.00;99.90;;;;;;5069674;28;20048;-81
2021/12/03 19:46:44;;;;;;;1.00;1.00;;;4.00;99.90;;;;;;5094282;28;20480;-80
2021/12/03 19:49:32;;;;;;;0.93;0.90;;;3.70;99.90;;;;;;5092854;28;20415;-79
2021/12/03 19:52:00;;;;;;;1.27;1.17;;;4.00;99.90;;;;;;5092980;28;20135;-80
2021/12/03 19:54:27;;;;;;;0.70;0.70;;;4.00;99.90;;;;;;5093007;28;20040;-80
2021/12/03 19:56:52;;;;;;;0.70;0.70;;;3.50;99.90;;;;;;5092660;28;20127;-80
2021/12/03 19:59:19;;;;;;;0.70;0.70;;;4.00;99.90;;;;;;5093213;28;20468;-82
2021/12/03 20:01:45;;;;;;;1.60;1.50;;;3.80;99.90;;;;;;5092873;28;20040;-80